WetterOnline ( https://www.wetteronline.de )

Wetter aktuell Garniga Terme (in 1300m)

Aktuelles Wetter: Paganella (2129m)

6-stündlich | Neueste Meldungen
Ortszeit Temperatur Wetter
Mo, 10.08. 14:00 17.2° C leicht bewölkt
Mo, 10.08. 8:00 12.0° C leicht bewölkt
Mo, 10.08. 2:00 12.6° C leicht bewölkt
So, 09.08. 20:00 14.6° C leicht bewölkt
So, 09.08. 14:00 16.0° C leicht bewölkt
So, 09.08. 8:00 12.2° C wolkenlos
So, 09.08. 2:00 11.8° C leicht bewölkt
Sa, 08.08. 20:00 16.0° C wolkenlos
Ortszeit Temperatur Wetter
Mo, 10.08. 18:00 15.0° C leichte Gewitter
Mo, 10.08. 17:55 15° C Gewitter
Mo, 10.08. 17:00 18.0° C leichte Gewitter
Mo, 10.08. 16:55 18° C Gewitter
Mo, 10.08. 16:00 18.5° C leicht bewölkt
Mo, 10.08. 15:55 19° C leicht bewölkt
Mo, 10.08. 15:00 18.0° C leicht bewölkt
Mo, 10.08. 14:55 18° C leicht bewölkt
Mo, 10.08. 14:00 17.2° C leicht bewölkt
Ortszeit Relative Feuchte Sichtweite
Mo, 10.08. 14:00 72% 35 km
Mo, 10.08. 8:00 95% 15 km
Mo, 10.08. 2:00 92% 20 km
So, 09.08. 20:00 72% 40 km
So, 09.08. 14:00 77% 50 km
So, 09.08. 8:00 68% 25 km
So, 09.08. 2:00 73% 30 km
Sa, 08.08. 20:00 70% 25 km
Ortszeit Relative Feuchte Sichtweite
Mo, 10.08. 18:00 80% 15 km
Mo, 10.08. 17:55 82% >10 km
Mo, 10.08. 17:00 70% 30 km
Mo, 10.08. 16:55 68% >10 km
Mo, 10.08. 16:00 72% 4.0 km
Mo, 10.08. 15:55 68% >10 km
Mo, 10.08. 15:00 65% 40 km
Mo, 10.08. 14:55 64% >10 km
Mo, 10.08. 14:00 72% 35 km
Ortszeit Niederschlagsmenge Niederschlagsart
Mo, 10.08. 14:00 0.0 l/m2 in 6 Std. -
Mo, 10.08. 8:00 0.0 l/m2 in 12 Std. -
Mo, 10.08. 2:00 0.0 l/m2 in 6 Std. -
So, 09.08. 20:00 0.0 l/m2 in 12 Std. -
So, 09.08. 14:00 0.0 l/m2 in 6 Std. -
So, 09.08. 8:00 0.0 l/m2 in 12 Std. -
So, 09.08. 2:00 0.0 l/m2 in 6 Std. -
Sa, 08.08. 20:00 0.0 l/m2 in 12 Std. -
Ortszeit Niederschlagsmenge Niederschlagsart
Mo, 10.08. 18:00 keine Meldung -
Mo, 10.08. 17:55 keine Meldung -
Mo, 10.08. 17:00 keine Meldung -
Mo, 10.08. 16:55 keine Meldung -
Mo, 10.08. 16:00 keine Meldung -
Mo, 10.08. 15:55 keine Meldung -
Mo, 10.08. 15:00 keine Meldung -
Mo, 10.08. 14:55 keine Meldung -
Mo, 10.08. 14:00 keine Meldung -
Ortszeit Stärke Spitze Richtung
km/h Bft. km/h Grad Sektor
Mo, 10.08. 14:00 15 3 - 220° SW
Mo, 10.08. 8:00 15 3 - 210° SW
Mo, 10.08. 2:00 15 3 - 220° SW
So, 09.08. 20:00 19 3 - 220° SW
So, 09.08. 14:00 0 0 - - -
So, 09.08. 8:00 11 2 - 220° SW
So, 09.08. 2:00 11 2 - 210° SW
Sa, 08.08. 20:00 13 3 - 220° SW
Ortszeit Stärke Spitze Richtung
km/h Bft. km/h Grad Sektor
Mo, 10.08. 18:00 19 3 - 220° SW
Mo, 10.08. 17:55 19 3 - 220° SW
Mo, 10.08. 17:00 22 4 - 220° SW
Mo, 10.08. 16:55 22 4 - 220° SW
Mo, 10.08. 16:00 13 3 - 220° SW
Mo, 10.08. 15:55 13 3 - 220° SW
Mo, 10.08. 15:00 15 3 - 220° SW
Mo, 10.08. 14:55 15 3 - 220° SW
Mo, 10.08. 14:00 15 3 - 220° SW
Ortszeit Untergrenze Bedeckung Gattung
total tief tief mittel hoch
Mo, 10.08. 14:00 150 m 3/8 4/8 Cu - -
Mo, 10.08. 8:00 30 m 3/8 3/8 Cu - -
Mo, 10.08. 2:00 1800 m 2/8 2/8 - Ac -
So, 09.08. 20:00 300 m 3/8 2/8 Cu - Ci
So, 09.08. 14:00 450 m 2/8 2/8 Cu - -
So, 09.08. 8:00 - 0/8 0/8 - - -
So, 09.08. 2:00 1800 m 3/8 3/8 - Ac -
Sa, 08.08. 20:00 - 0/8 0/8 - - -
Ortszeit Bedeckungsgrad in Achtel und Wolkenuntergrenze
Mo, 10.08. 18:00 2(90m) 3(150m)
Mo, 10.08. 17:55 1-2(90m) 3-4(150m)
Mo, 10.08. 17:00 1(90m)
Mo, 10.08. 16:55 1-2(90m) 3-4(150m)
Mo, 10.08. 16:00 4(150m)
Mo, 10.08. 15:55 3-4(150m)
Mo, 10.08. 15:00 3(150m)
Mo, 10.08. 14:55 3-4(150m)
Mo, 10.08. 14:00 3(150m)
Ortszeit Stationsdruck (hPa) Tendenz (hPa in 3 Std.)
Mo, 10.08. 14:00 794 0,0
Mo, 10.08. 8:00 793 - 0,7
Mo, 10.08. 2:00 794 0,0
So, 09.08. 20:00 794 - 0,5
So, 09.08. 14:00 795 - 0,3
So, 09.08. 8:00 796 - 0,2
So, 09.08. 2:00 796 + 0,1
Sa, 08.08. 20:00 796 - 0,1
Ortszeit Stationsdruck (hPa) Tendenz (hPa in 3 Std.)
Mo, 10.08. 18:00 793 - 0,6
Mo, 10.08. 17:55 - keine Meldung
Mo, 10.08. 17:00 793 - 0,6
Mo, 10.08. 16:55 - keine Meldung
Mo, 10.08. 16:00 794 0,0
Mo, 10.08. 15:55 - keine Meldung
Mo, 10.08. 15:00 794 0,0
Mo, 10.08. 14:55 - keine Meldung
Mo, 10.08. 14:00 794 0,0
Ortszeit Schneehöhe (cm)
Mo, 10.08. 14:00 -
Mo, 10.08. 8:00 0
Mo, 10.08. 2:00 -
So, 09.08. 20:00 -
So, 09.08. 14:00 -
So, 09.08. 8:00 0
So, 09.08. 2:00 -
Sa, 08.08. 20:00 -
Ortszeit Schneehöhe (cm)
Mo, 10.08. 18:00 -
Mo, 10.08. 17:55 -
Mo, 10.08. 17:00 -
Mo, 10.08. 16:55 -
Mo, 10.08. 16:00 -
Mo, 10.08. 15:55 -
Mo, 10.08. 15:00 -
Mo, 10.08. 14:55 -
Mo, 10.08. 14:00 -
Link zu dieser Seite / Seite empfehlen

Das Wetter in ...